Latest Coastal Weather Observations for Smithton

IDV60701

Issued at 4:25 pm EDT Monday 24 November 2014 (issued every 10 minutes, with the page automatically refreshed every 10 minutes)

About coastal observations | Map of coastal stations | Coastal observations for VIC | Marine services | Other Formats
Station Details ID: 091292 Name: SMITHTON AERODROME Lat: -40.83 Lon: 145.08 Height: 7.5 m
Data from the previous 72 hours. | See also: Recent months at Smithton
Date/Time
EDT
Temp

°C
Wind Pressure Rain
since 9am
mm
Weather Cloud Vis
km
Sea
Height
m
Swell
Dir
 
Speed
knots
Gust
knots
hPa Trend Height
m
Period
s
Dir
24/04:23pm 13.3 WSW 16 22 1005.7 - 2.8 - - - - - - -
24/04:00pm 13.8 SE 3 4 1005.2 - 1.4 - - - - - - -
24/03:30pm 13.6 SE 4 6 1005.6 - 1.4 - - - - - - -
24/03:00pm 13.6 E 4 5 1006.0 - 1.0 - - - - - - -
24/02:30pm 14.1 ENE 6 9 1005.9 - 0.6 - - - - - - -
24/02:00pm 14.4 E 10 13 1006.1 - 0.6 - - - - - - -
24/01:30pm 15.3 ENE 13 16 1006.4 - 0.6 - - - - - - -
24/01:00pm 15.7 ENE 12 19 1006.9 - 0.6 - - - - - - -
24/12:30pm 14.5 ENE 10 14 1007.3 - 0.6 - - - - - - -
24/12:00pm 14.5 E 9 12 1007.8 - 0.6 - - - - - - -
24/11:30am 14.3 E 9 12 1008.3 - 0.4 - - - - - - -
24/11:00am 14.3 ENE 7 9 1008.9 - 0.4 - - - - - - -
24/10:30am 15.0 ENE 10 13 1008.9 - 0.2 - - - - - - -
24/10:00am 15.1 ENE 9 14 1009.5 - 0.2 - - - - - - -
24/09:30am 14.4 NE 11 14 1010.3 - 0.0 - - - - - - -
24/09:00am 14.2 ENE 8 12 1009.7 - 1.0 - - - - - - -
24/08:30am 14.0 E 9 12 1009.0 - 1.0 - - - - - - -
24/08:00am 14.0 NE 6 8 1010.5 - 0.6 - - - - - - -
24/07:30am 13.9 ENE 5 7 1009.8 - 0.6 - - - - - - -
24/07:00am 13.4 ENE 4 5 1009.7 - 0.6 - - - - - - -
24/06:30am 13.7 ENE 4 7 1010.3 - 0.0 - - - - - - -
24/06:00am 13.8 NE 5 7 1009.8 - 0.0 - - - - - - -
24/05:30am 14.3 NE 6 8 1009.1 - 0.0 - - - - - - -
24/05:00am 14.4 NE 6 8 1009.6 - 0.0 - - - - - - -
24/04:30am 14.6 N 6 8 1010.6 - 0.0 - - - - - - -
24/04:00am 14.6 N 8 10 1010.7 - 0.0 - - - - - - -
24/03:30am 14.0 N 8 10 1011.5 - 0.0 - - - - - - -
24/03:00am 13.6 N 10 12 1011.3 - 0.0 - - - - - - -
24/02:53am 13.1 NW 5 11 1011.4 - 0.0 - - - - - - -
24/02:30am 8.1 CALM 0 2 1011.6 - 0.0 - - - - - - -
24/02:00am 7.5 CALM 0 0 1011.8 - 0.0 - - - - - - -
24/01:30am 7.6 CALM 0 0 1012.1 - 0.0 - - - - - - -
24/01:00am 7.8 CALM 0 0 1012.3 - 0.0 - - - - - - -
24/12:30am 7.7 CALM 0 0 1012.3 - 0.0 - - - - - - -
24/12:00am 8.8 WNW 0 0 1012.4 - 0.0 - - - - - - -
 
Date/Time
EDT
Temp

°C
Wind Pressure Rain
since 9am
mm
Weather Cloud Vis
km
Sea
Height
m
Swell
Dir
 
Speed
knots
Gust
knots
hPa Trend Height
m
Period
s
Dir
23/11:30pm 10.5 W 4 5 1012.5 - 0.0 - - - - - - -
23/11:00pm 10.5 W 3 4 1012.9 - 0.0 - - - - - - -
23/10:30pm 10.8 W 3 4 1013.2 - 0.0 - - - - - - -
23/10:00pm 11.7 W 5 5 1012.9 - 0.0 - - - - - - -
23/09:30pm 11.8 W 4 4 1013.0 - 0.0 - - - - - - -
23/09:00pm 12.0 W 6 7 1013.1 - 0.0 - - - - - - -
23/08:30pm 12.7 W 6 8 1013.2 - 0.0 - - - - - - -
23/08:00pm 13.8 W 6 7 1013.1 - 0.0 - - - - - - -
23/07:30pm 16.4 W 7 9 1012.9 - 0.0 - - - - - - -
23/07:00pm 16.6 W 11 13 1012.7 - 0.0 - - - - - - -
23/06:30pm 18.5 W 10 14 1012.5 - 0.0 - - - - - - -
23/06:00pm 18.5 WSW 13 18 1012.3 - 0.0 - - - - - - -
23/05:30pm 19.1 WSW 11 16 1012.1 - 0.0 - - - - - - -
23/05:00pm 19.6 W 14 19 1012.0 - 0.0 - - - - - - -
23/04:30pm 19.8 WSW 13 20 1011.3 - 0.0 - - - - - - -
23/04:00pm 20.1 WSW 14 19 1011.4 - 0.0 - - - - - - -
23/03:36pm 20.4 SW 15 25 1011.1 - 0.0 - - - - - - -
23/03:30pm 20.1 SW 15 22 1010.9 - 0.0 - - - - - - -
23/03:00pm 20.0 W 17 21 1011.1 - 0.0 - - - - - - -
23/02:30pm 19.9 W 15 21 1011.0 - 0.0 - - - - - - -
23/02:00pm 19.8 WSW 16 20 1011.1 - 0.0 - - - - - - -
23/01:30pm 19.6 W 13 17 1011.4 - 0.0 - - - - - - -
23/01:00pm 19.7 W 15 19 1011.3 - 0.0 - - - - - - -
23/12:30pm 19.7 WSW 12 18 1011.5 - 0.0 - - - - - - -
23/12:00pm 19.2 WSW 12 17 1011.7 - 0.0 - - - - - - -
23/11:30am 19.1 W 12 20 1011.8 - 0.0 - - - - - - -
23/11:00am 18.5 WNW 13 17 1011.7 - 0.0 - - - - - - -
23/10:30am 17.9 W 12 17 1011.6 - 0.0 - - - - - - -
23/10:00am 17.2 W 11 14 1011.5 - 0.0 - - - - - - -
23/09:30am 16.9 WSW 11 15 1011.6 - 0.0 - - - - - - -
23/09:00am 16.3 WSW 11 14 1011.3 - 0.8 - - - - - - -
23/08:30am 15.6 WSW 10 14 1011.1 - 0.8 - - - - - - -
23/08:00am 14.4 WSW 12 16 1010.8 - 0.8 - - - - - - -
23/07:30am 13.3 WSW 10 13 1010.3 - 0.8 - - - - - - -
23/07:00am 12.2 WSW 7 9 1010.0 - 0.8 - - - - - - -
23/06:30am 10.9 WSW 8 10 1009.8 - 0.8 - - - - - - -
23/06:00am 10.3 WSW 7 8 1009.3 - 0.8 - - - - - - -
23/05:30am 11.1 SW 4 6 1008.9 - 0.8 - - - - - - -
23/05:00am 11.8 SW 6 9 1008.6 - 0.8 - - - - - - -
23/04:30am 12.7 WSW 7 12 1008.3 - 0.8 - - - - - - -
23/04:00am 11.6 WSW 5 7 1007.9 - 0.8 - - - - - - -
23/03:30am 11.8 SW 4 6 1007.8 - 0.8 - - - - - - -
23/03:00am 12.2 SW 6 8 1007.7 - 0.8 - - - - - - -
23/02:30am 13.0 SW 7 9 1007.7 - 0.8 - - - - - - -
23/02:00am 12.8 WSW 10 16 1007.7 - 0.8 - - - - - - -
23/01:30am 12.6 WSW 5 6 1007.5 - 0.8 - - - - - - -
23/01:00am 11.1 WSW 7 8 1007.3 - 0.8 - - - - - - -
23/12:30am 10.8 WSW 7 7 1007.2 - 0.8 - - - - - - -
23/12:00am 11.6 W 8 9 1006.9 - 0.8 - - - - - - -
 
Date/Time
EDT
Temp

°C
Wind Pressure Rain
since 9am
mm
Weather Cloud Vis
km
Sea
Height
m
Swell
Dir
 
Speed
knots
Gust
knots
hPa Trend Height
m
Period
s
Dir
22/11:30pm 10.3 NE 5 7 1006.6 - 0.8 - - - - - - -
22/11:00pm 12.1 NE 5 6 1006.3 - 0.8 - - - - - - -
22/10:30pm 13.1 NE 3 5 1006.2 - 0.8 - - - - - - -
22/10:00pm 14.1 NE 5 7 1006.1 - 0.8 - - - - - - -
22/09:30pm 14.3 NE 6 7 1005.9 - 0.8 - - - - - - -
22/09:00pm 14.5 NE 4 6 1005.3 - 0.8 - - - - - - -
22/08:30pm 15.2 NE 5 7 1005.2 - 0.8 - - - - - - -
22/08:00pm 15.9 ENE 6 9 1004.9 - 0.8 - - - - - - -
22/07:30pm 16.2 ENE 6 9 1005.3 - 0.8 - - - - - - -
22/07:00pm 16.9 ENE 11 14 1005.2 - 0.8 - - - - - - -
22/06:30pm 17.7 ENE 13 16 1005.0 - 0.8 - - - - - - -
22/06:00pm 17.7 ENE 12 16 1005.1 - 0.8 - - - - - - -
22/05:30pm 18.0 ENE 13 17 1005.2 - 0.8 - - - - - - -
22/05:00pm 17.7 E 11 14 1005.6 - 0.8 - - - - - - -
22/04:30pm 17.6 ENE 12 16 1005.7 - 0.8 - - - - - - -
22/04:00pm 18.1 ENE 11 15 1006.0 - 0.8 - - - - - - -
22/03:30pm 17.9 ENE 13 18 1006.5 - 0.8 - - - - - - -
22/03:00pm 18.2 E 11 14 1006.8 - 0.8 - - - - - - -
22/02:30pm 15.1 ENE 9 12 1007.6 - 0.8 - - - - - - -
22/02:00pm 15.3 ENE 12 14 1008.2 - 0.4 - - - - - - -
22/01:30pm 16.4 ENE 13 17 1008.4 - 0.2 - - - - - - -
22/01:00pm 16.5 ENE 14 19 1008.3 - 0.2 - - - - - - -
22/12:30pm 15.8 ENE 16 22 1008.6 - 0.2 - - - - - - -
22/12:00pm 14.8 ENE 14 19 1009.1 - 0.2 - - - - - - -
22/11:30am 15.4 ENE 13 18 1008.9 - 0.2 - - - - - - -
22/11:00am 17.1 ENE 13 19 1008.8 - 0.0 - - - - - - -
22/10:30am 16.7 NE 12 15 1009.2 - 0.0 - - - - - - -
22/10:00am 16.9 NE 11 14 1009.3 - 0.0 - - - - - - -
22/09:30am 14.7 NNE 9 12 1010.2 - 0.0 - - - - - - -
22/09:00am 15.3 NE 9 11 1009.5 - 0.4 - - - - - - -
22/08:30am 14.4 NNE 7 9 1010.0 - 0.4 - - - - - - -
22/08:00am 14.0 N 7 8 1010.0 - 0.4 - - - - - - -
22/07:30am 13.1 N 4 5 1010.1 - 0.4 - - - - - - -
22/07:00am 12.7 N 5 7 1010.2 - 0.2 - - - - - - -
22/06:30am 10.4 N 3 5 1010.5 - 0.2 - - - - - - -
22/06:00am 9.3 N 3 4 1010.8 - 0.0 - - - - - - -
22/05:30am 9.0 CALM 0 0 1010.6 - 0.0 - - - - - - -
22/05:00am 9.2 N 2 4 1010.2 - 0.0 - - - - - - -
22/04:30am 12.8 N 9 11 1009.9 - 0.0 - - - - - - -
22/04:00am 12.1 N 9 13 1009.8 - 0.0 - - - - - - -
22/03:47am 10.9 NW 5 11 1009.2 - 0.0 - - - - - - -
22/03:30am 4.7 WSW 4 5 1009.3 - 0.0 - - - - - - -
22/03:00am 5.0 CALM 0 3 1009.5 - 0.0 - - - - - - -
22/02:30am 4.5 W 2 6 1009.9 - 0.0 - - - - - - -
22/02:00am 4.9 CALM 0 0 1009.9 - 0.0 - - - - - - -
22/01:30am 4.8 CALM 0 0 1010.3 - 0.0 - - - - - - -
22/01:00am 5.1 CALM 0 0 1010.8 - 0.0 - - - - - - -
22/12:30am 5.5 CALM 0 0 1011.2 - 0.0 - - - - - - -
22/12:00am 5.4 CALM 0 0 1011.5 - 0.0 - - - - - - -
 
Date/Time
EDT
Temp

°C
Wind Pressure Rain
since 9am
mm
Weather Cloud Vis
km
Sea
Height
m
Swell
Dir
 
Speed
knots
Gust
knots
hPa Trend Height
m
Period
s
Dir
21/11:30pm 6.2 W 4 5 1011.8 - 0.0 - - - - - - -
21/11:00pm 6.4 W 6 7 1012.0 - 0.0 - - - - - - -
21/10:30pm 7.6 CALM 0 0 1012.7 - 0.0 - - - - - - -
21/10:00pm 8.4 CALM 0 0 1012.7 - 0.0 - - - - - - -
21/09:30pm 9.1 CALM 0 0 1012.3 - 0.0 - - - - - - -
21/09:00pm 10.3 W 3 4 1011.9 - 0.0 - - - - - - -
21/08:30pm 10.6 W 6 7 1011.9 - 0.0 - - - - - - -
21/08:00pm 12.4 W 9 11 1011.6 - 0.0 - - - - - - -
21/07:30pm 13.5 W 11 13 1011.3 - 0.0 - - - - - - -
21/07:00pm 14.2 W 12 15 1010.8 - 0.0 - - - - - - -
21/06:30pm 15.1 W 13 16 1010.5 - 0.0 - - - - - - -
21/06:00pm 15.6 W 13 16 1010.0 - 0.0 - - - - - - -
21/05:30pm 15.9 WNW 13 17 1009.8 - 0.0 - - - - - - -
21/05:00pm 16.5 WSW 12 16 1009.6 - 0.0 - - - - - - -
21/04:30pm 16.6 W 15 20 1009.7 - 0.0 - - - - - - -

Other Formats:

Comma delimited format used in spreadsheet applications
http://www.bom.gov.au/fwo/IDV60701/IDV60701.94953.axf

JavaScript Object Notation format (JSON) in row-major order
http://www.bom.gov.au/fwo/IDV60701/IDV60701.94953.json